Erandio, Spain
Current Conditions -  °F | °C
As of 5:00 AM on Tuesday 23 Dec 2014 (Local Time) from LEBB Reporting Station
Clear Clear  
Wind Chill: 43°   Ceiling: Unl
Heat Index: 43°   Visibility: 6mi
Dew Point: 36°   Wind: 1mph
Humidity: 76%   Direction: NA
Pressure: 30.36"   Gusts: NA
Location:  43.31°N, 2.95°W
Report Text: LEBB 230400Z VRB01KT CAVOK 06/02 Q1028 NOSIG
Loading
Personal Weather Stations






























Interactive Weather Map New forecast layout! Learn more

10-Day Weather Forecast

Advertisements
Track Severe Weather on mobile